sensor_id;sensor_type;location;lat;lon;timestamp;P1;durP1;ratioP1;P2;durP2;ratioP2
1336;SDS011;662;48.814;9.318;2022-08-24T00:01:11;5.73;;;4.70;;
1336;SDS011;662;48.814;9.318;2022-08-24T00:03:39;6.13;;;5.27;;
1336;SDS011;662;48.814;9.318;2022-08-24T00:06:05;5.30;;;4.90;;
1336;SDS011;662;48.814;9.318;2022-08-24T00:08:33;6.40;;;5.00;;
1336;SDS011;662;48.814;9.318;2022-08-24T00:11:00;5.50;;;5.00;;
1336;SDS011;662;48.814;9.318;2022-08-24T00:13:26;6.20;;;5.60;;
1336;SDS011;662;48.814;9.318;2022-08-24T00:15:52;6.83;;;5.17;;
1336;SDS011;662;48.814;9.318;2022-08-24T00:18:19;5.67;;;5.17;;
1336;SDS011;662;48.814;9.318;2022-08-24T00:20:45;6.53;;;4.63;;
1336;SDS011;662;48.814;9.318;2022-08-24T00:23:12;5.60;;;5.20;;
1336;SDS011;662;48.814;9.318;2022-08-24T00:25:38;6.20;;;5.70;;
1336;SDS011;662;48.814;9.318;2022-08-24T00:28:04;6.83;;;5.63;;
1336;SDS011;662;48.814;9.318;2022-08-24T00:30:31;5.77;;;5.27;;
1336;SDS011;662;48.814;9.318;2022-08-24T00:32:57;6.63;;;5.60;;
1336;SDS011;662;48.814;9.318;2022-08-24T00:35:23;5.87;;;5.23;;
1336;SDS011;662;48.814;9.318;2022-08-24T00:37:49;9.63;;;5.87;;
1336;SDS011;662;48.814;9.318;2022-08-24T00:40:25;6.10;;;5.70;;
1336;SDS011;662;48.814;9.318;2022-08-24T00:42:54;6.50;;;5.53;;
1336;SDS011;662;48.814;9.318;2022-08-24T00:45:21;6.00;;;5.50;;
1336;SDS011;662;48.814;9.318;2022-08-24T00:47:56;6.47;;;5.97;;
1336;SDS011;662;48.814;9.318;2022-08-24T00:50:31;5.90;;;5.30;;
1336;SDS011;662;48.814;9.318;2022-08-24T00:53:22;6.23;;;5.70;;
1336;SDS011;662;48.814;9.318;2022-08-24T00:55:52;6.13;;;5.63;;
1336;SDS011;662;48.814;9.318;2022-08-24T00:58:28;7.47;;;6.20;;
1336;SDS011;662;48.814;9.318;2022-08-24T01:00:59;6.40;;;5.80;;
1336;SDS011;662;48.814;9.318;2022-08-24T01:03:28;6.10;;;5.60;;
1336;SDS011;662;48.814;9.318;2022-08-24T01:05:56;6.43;;;5.87;;
1336;SDS011;662;48.814;9.318;2022-08-24T01:08:22;6.93;;;6.23;;
1336;SDS011;662;48.814;9.318;2022-08-24T01:10:51;5.70;;;5.30;;
1336;SDS011;662;48.814;9.318;2022-08-24T01:13:21;8.17;;;6.00;;
1336;SDS011;662;48.814;9.318;2022-08-24T01:15:48;7.30;;;5.90;;
1336;SDS011;662;48.814;9.318;2022-08-24T01:18:19;5.90;;;5.50;;
1336;SDS011;662;48.814;9.318;2022-08-24T01:26:24;6.40;;;5.80;;
1336;SDS011;662;48.814;9.318;2022-08-24T01:28:54;5.63;;;5.10;;
1336;SDS011;662;48.814;9.318;2022-08-24T01:31:24;11.93;;;5.70;;
1336;SDS011;662;48.814;9.318;2022-08-24T01:33:51;5.60;;;5.10;;
1336;SDS011;662;48.814;9.318;2022-08-24T01:36:38;5.30;;;4.90;;
1336;SDS011;662;48.814;9.318;2022-08-24T01:41:39;5.10;;;4.70;;
1336;SDS011;662;48.814;9.318;2022-08-24T01:44:05;10.00;;;5.07;;
1336;SDS011;662;48.814;9.318;2022-08-24T01:46:31;6.20;;;5.63;;
1336;SDS011;662;48.814;9.318;2022-08-24T01:48:58;5.77;;;5.27;;
1336;SDS011;662;48.814;9.318;2022-08-24T01:51:31;7.03;;;5.70;;
1336;SDS011;662;48.814;9.318;2022-08-24T01:53:57;6.70;;;5.27;;
1336;SDS011;662;48.814;9.318;2022-08-24T01:56:26;5.70;;;5.17;;
1336;SDS011;662;48.814;9.318;2022-08-24T01:58:52;6.97;;;5.97;;
1336;SDS011;662;48.814;9.318;2022-08-24T02:01:18;6.13;;;5.53;;
1336;SDS011;662;48.814;9.318;2022-08-24T02:03:44;6.03;;;5.13;;
1336;SDS011;662;48.814;9.318;2022-08-24T02:06:10;8.10;;;6.00;;
1336;SDS011;662;48.814;9.318;2022-08-24T02:08:36;5.50;;;5.10;;
1336;SDS011;662;48.814;9.318;2022-08-24T02:11:05;6.17;;;5.27;;
1336;SDS011;662;48.814;9.318;2022-08-24T02:13:32;6.23;;;5.40;;
1336;SDS011;662;48.814;9.318;2022-08-24T02:15:59;6.67;;;5.67;;
1336;SDS011;662;48.814;9.318;2022-08-24T02:18:25;5.80;;;5.30;;
1336;SDS011;662;48.814;9.318;2022-08-24T02:20:51;7.30;;;5.87;;
1336;SDS011;662;48.814;9.318;2022-08-24T02:23:17;8.03;;;5.80;;
1336;SDS011;662;48.814;9.318;2022-08-24T02:25:44;5.90;;;5.40;;
1336;SDS011;662;48.814;9.318;2022-08-24T02:28:10;6.50;;;5.87;;
1336;SDS011;662;48.814;9.318;2022-08-24T02:30:36;5.90;;;5.40;;
1336;SDS011;662;48.814;9.318;2022-08-24T02:33:01;6.47;;;5.87;;
1336;SDS011;662;48.814;9.318;2022-08-24T02:35:28;5.73;;;5.33;;
1336;SDS011;662;48.814;9.318;2022-08-24T02:37:54;7.27;;;5.90;;
1336;SDS011;662;48.814;9.318;2022-08-24T02:40:20;5.70;;;5.20;;
1336;SDS011;662;48.814;9.318;2022-08-24T02:42:45;5.20;;;4.70;;
1336;SDS011;662;48.814;9.318;2022-08-24T02:45:12;5.77;;;4.90;;
1336;SDS011;662;48.814;9.318;2022-08-24T02:47:38;4.83;;;4.43;;
1336;SDS011;662;48.814;9.318;2022-08-24T02:50:04;6.03;;;5.47;;
1336;SDS011;662;48.814;9.318;2022-08-24T02:52:32;5.80;;;5.40;;
1336;SDS011;662;48.814;9.318;2022-08-24T02:54:59;6.00;;;5.10;;
1336;SDS011;662;48.814;9.318;2022-08-24T02:57:25;5.90;;;5.43;;
1336;SDS011;662;48.814;9.318;2022-08-24T02:59:51;12.50;;;5.80;;
1336;SDS011;662;48.814;9.318;2022-08-24T03:02:17;5.80;;;5.20;;
1336;SDS011;662;48.814;9.318;2022-08-24T03:04:42;6.10;;;5.50;;
1336;SDS011;662;48.814;9.318;2022-08-24T03:07:08;5.57;;;5.17;;
1336;SDS011;662;48.814;9.318;2022-08-24T03:09:34;5.27;;;4.73;;
1336;SDS011;662;48.814;9.318;2022-08-24T03:11:59;8.47;;;5.43;;
1336;SDS011;662;48.814;9.318;2022-08-24T03:14:25;7.43;;;5.90;;
1336;SDS011;662;48.814;9.318;2022-08-24T03:16:51;6.13;;;5.63;;
1336;SDS011;662;48.814;9.318;2022-08-24T03:19:17;6.57;;;5.80;;
1336;SDS011;662;48.814;9.318;2022-08-24T03:21:42;7.23;;;5.50;;
1336;SDS011;662;48.814;9.318;2022-08-24T03:24:08;5.83;;;5.43;;
1336;SDS011;662;48.814;9.318;2022-08-24T03:26:33;6.33;;;5.70;;
1336;SDS011;662;48.814;9.318;2022-08-24T03:28:59;7.40;;;5.87;;
1336;SDS011;662;48.814;9.318;2022-08-24T03:31:25;5.70;;;5.17;;
1336;SDS011;662;48.814;9.318;2022-08-24T03:33:51;5.90;;;5.40;;
1336;SDS011;662;48.814;9.318;2022-08-24T03:36:17;5.50;;;5.10;;
1336;SDS011;662;48.814;9.318;2022-08-24T03:38:42;6.07;;;5.67;;
1336;SDS011;662;48.814;9.318;2022-08-24T03:41:08;5.50;;;5.10;;
1336;SDS011;662;48.814;9.318;2022-08-24T03:43:36;6.23;;;5.63;;
1336;SDS011;662;48.814;9.318;2022-08-24T03:46:14;5.57;;;5.17;;
1336;SDS011;662;48.814;9.318;2022-08-24T03:48:42;5.73;;;5.33;;
1336;SDS011;662;48.814;9.318;2022-08-24T03:51:15;5.63;;;5.13;;
1336;SDS011;662;48.814;9.318;2022-08-24T03:53:42;6.00;;;5.37;;
1336;SDS011;662;48.814;9.318;2022-08-24T03:56:09;6.30;;;5.80;;
1336;SDS011;662;48.814;9.318;2022-08-24T03:58:36;5.90;;;5.40;;
1336;SDS011;662;48.814;9.318;2022-08-24T04:01:03;6.37;;;5.90;;
1336;SDS011;662;48.814;9.318;2022-08-24T04:03:30;6.53;;;5.93;;
1336;SDS011;662;48.814;9.318;2022-08-24T04:05:59;6.10;;;5.47;;
1336;SDS011;662;48.814;9.318;2022-08-24T04:08:25;7.70;;;5.37;;
1336;SDS011;662;48.814;9.318;2022-08-24T04:10:51;5.47;;;4.97;;
1336;SDS011;662;48.814;9.318;2022-08-24T04:13:18;5.67;;;5.10;;
1336;SDS011;662;48.814;9.318;2022-08-24T04:15:44;5.93;;;5.40;;
1336;SDS011;662;48.814;9.318;2022-08-24T04:18:10;6.70;;;5.37;;
1336;SDS011;662;48.814;9.318;2022-08-24T04:20:37;4.93;;;4.53;;
1336;SDS011;662;48.814;9.318;2022-08-24T04:23:04;6.37;;;5.57;;
1336;SDS011;662;48.814;9.318;2022-08-24T04:25:37;5.20;;;4.70;;
1336;SDS011;662;48.814;9.318;2022-08-24T04:28:04;6.30;;;5.57;;
1336;SDS011;662;48.814;9.318;2022-08-24T04:30:30;8.67;;;6.50;;
1336;SDS011;662;48.814;9.318;2022-08-24T04:32:56;6.20;;;5.70;;
1336;SDS011;662;48.814;9.318;2022-08-24T04:35:22;7.93;;;6.03;;
1336;SDS011;662;48.814;9.318;2022-08-24T04:37:47;6.00;;;5.40;;
1336;SDS011;662;48.814;9.318;2022-08-24T04:40:14;6.50;;;5.47;;
1336;SDS011;662;48.814;9.318;2022-08-24T04:42:39;6.00;;;5.40;;
1336;SDS011;662;48.814;9.318;2022-08-24T04:45:05;5.70;;;5.23;;
1336;SDS011;662;48.814;9.318;2022-08-24T04:47:31;8.60;;;6.10;;
1336;SDS011;662;48.814;9.318;2022-08-24T04:49:57;5.37;;;5.00;;
1336;SDS011;662;48.814;9.318;2022-08-24T04:52:22;6.23;;;5.73;;
1336;SDS011;662;48.814;9.318;2022-08-24T04:54:48;7.13;;;5.77;;
1336;SDS011;662;48.814;9.318;2022-08-24T04:57:14;7.30;;;6.30;;
1336;SDS011;662;48.814;9.318;2022-08-24T04:59:39;6.93;;;6.23;;
1336;SDS011;662;48.814;9.318;2022-08-24T05:02:05;6.77;;;6.17;;
1336;SDS011;662;48.814;9.318;2022-08-24T05:04:31;9.20;;;5.77;;
1336;SDS011;662;48.814;9.318;2022-08-24T05:06:56;6.03;;;5.50;;
1336;SDS011;662;48.814;9.318;2022-08-24T05:09:22;6.60;;;5.90;;
1336;SDS011;662;48.814;9.318;2022-08-24T05:11:48;6.77;;;6.17;;
1336;SDS011;662;48.814;9.318;2022-08-24T05:14:13;5.90;;;5.50;;
1336;SDS011;662;48.814;9.318;2022-08-24T05:16:39;6.10;;;5.70;;
1336;SDS011;662;48.814;9.318;2022-08-24T05:19:05;6.73;;;6.13;;
1336;SDS011;662;48.814;9.318;2022-08-24T05:21:31;5.60;;;5.10;;
1336;SDS011;662;48.814;9.318;2022-08-24T05:23:57;5.20;;;4.70;;
1336;SDS011;662;48.814;9.318;2022-08-24T05:26:23;6.10;;;5.50;;
1336;SDS011;662;48.814;9.318;2022-08-24T05:28:55;5.80;;;5.30;;
1336;SDS011;662;48.814;9.318;2022-08-24T05:31:23;6.13;;;5.53;;
1336;SDS011;662;48.814;9.318;2022-08-24T05:33:51;7.50;;;6.00;;
1336;SDS011;662;48.814;9.318;2022-08-24T05:36:19;9.77;;;6.13;;
1336;SDS011;662;48.814;9.318;2022-08-24T05:38:49;6.37;;;5.77;;
1336;SDS011;662;48.814;9.318;2022-08-24T05:41:17;8.43;;;6.17;;
1336;SDS011;662;48.814;9.318;2022-08-24T05:43:43;19.47;;;11.97;;
1336;SDS011;662;48.814;9.318;2022-08-24T05:46:09;22.80;;;14.87;;
1336;SDS011;662;48.814;9.318;2022-08-24T05:48:35;10.73;;;8.40;;
1336;SDS011;662;48.814;9.318;2022-08-24T05:51:03;8.30;;;6.57;;
1336;SDS011;662;48.814;9.318;2022-08-24T05:53:29;5.70;;;5.17;;
1336;SDS011;662;48.814;9.318;2022-08-24T05:55:55;6.17;;;5.57;;
1336;SDS011;662;48.814;9.318;2022-08-24T05:58:21;5.60;;;5.10;;
1336;SDS011;662;48.814;9.318;2022-08-24T06:00:46;8.20;;;5.83;;
1336;SDS011;662;48.814;9.318;2022-08-24T06:03:13;6.87;;;4.97;;
1336;SDS011;662;48.814;9.318;2022-08-24T06:05:40;6.03;;;5.50;;
1336;SDS011;662;48.814;9.318;2022-08-24T06:08:07;6.23;;;4.80;;
1336;SDS011;662;48.814;9.318;2022-08-24T06:10:43;6.30;;;4.67;;
1336;SDS011;662;48.814;9.318;2022-08-24T06:13:11;5.57;;;5.07;;
1336;SDS011;662;48.814;9.318;2022-08-24T06:15:37;5.57;;;5.10;;
1336;SDS011;662;48.814;9.318;2022-08-24T06:18:04;5.50;;;5.10;;
1336;SDS011;662;48.814;9.318;2022-08-24T06:20:31;6.07;;;4.90;;
1336;SDS011;662;48.814;9.318;2022-08-24T06:22:58;8.60;;;5.70;;
1336;SDS011;662;48.814;9.318;2022-08-24T06:25:23;5.93;;;5.50;;
1336;SDS011;662;48.814;9.318;2022-08-24T06:28:07;5.97;;;5.10;;
1336;SDS011;662;48.814;9.318;2022-08-24T06:30:33;6.23;;;5.00;;
1336;SDS011;662;48.814;9.318;2022-08-24T06:33:00;6.53;;;5.70;;
1336;SDS011;662;48.814;9.318;2022-08-24T06:35:26;5.67;;;5.27;;
1336;SDS011;662;48.814;9.318;2022-08-24T06:37:52;6.40;;;5.80;;
1336;SDS011;662;48.814;9.318;2022-08-24T06:40:18;5.20;;;4.70;;
1336;SDS011;662;48.814;9.318;2022-08-24T06:42:44;5.40;;;4.87;;
1336;SDS011;662;48.814;9.318;2022-08-24T06:45:11;6.13;;;5.50;;
1336;SDS011;662;48.814;9.318;2022-08-24T06:47:37;9.40;;;5.43;;
1336;SDS011;662;48.814;9.318;2022-08-24T06:50:03;4.90;;;4.50;;
1336;SDS011;662;48.814;9.318;2022-08-24T06:52:30;6.60;;;4.83;;
1336;SDS011;662;48.814;9.318;2022-08-24T06:54:56;5.67;;;4.50;;
1336;SDS011;662;48.814;9.318;2022-08-24T06:57:22;8.93;;;4.87;;
1336;SDS011;662;48.814;9.318;2022-08-24T06:59:48;5.67;;;5.10;;
1336;SDS011;662;48.814;9.318;2022-08-24T07:02:13;5.60;;;5.10;;
1336;SDS011;662;48.814;9.318;2022-08-24T07:04:42;8.60;;;5.10;;
1336;SDS011;662;48.814;9.318;2022-08-24T07:07:09;6.00;;;5.17;;
1336;SDS011;662;48.814;9.318;2022-08-24T07:09:34;6.53;;;4.83;;
1336;SDS011;662;48.814;9.318;2022-08-24T07:12:00;6.53;;;4.60;;
1336;SDS011;662;48.814;9.318;2022-08-24T07:14:27;7.03;;;4.67;;
1336;SDS011;662;48.814;9.318;2022-08-24T07:16:52;8.83;;;4.97;;
1336;SDS011;662;48.814;9.318;2022-08-24T07:19:18;5.30;;;4.40;;
1336;SDS011;662;48.814;9.318;2022-08-24T07:21:44;4.90;;;4.20;;
1336;SDS011;662;48.814;9.318;2022-08-24T07:24:09;8.57;;;4.20;;
1336;SDS011;662;48.814;9.318;2022-08-24T07:26:36;5.33;;;4.43;;
1336;SDS011;662;48.814;9.318;2022-08-24T07:29:04;4.90;;;4.40;;
1336;SDS011;662;48.814;9.318;2022-08-24T07:31:35;6.87;;;4.10;;
1336;SDS011;662;48.814;9.318;2022-08-24T07:34:03;4.13;;;3.77;;
1336;SDS011;662;48.814;9.318;2022-08-24T07:36:30;4.77;;;3.80;;
1336;SDS011;662;48.814;9.318;2022-08-24T07:38:56;3.53;;;3.30;;
1336;SDS011;662;48.814;9.318;2022-08-24T07:41:22;3.80;;;3.50;;
1336;SDS011;662;48.814;9.318;2022-08-24T07:43:52;6.50;;;3.87;;
1336;SDS011;662;48.814;9.318;2022-08-24T07:46:19;3.50;;;3.07;;
1336;SDS011;662;48.814;9.318;2022-08-24T07:48:45;3.90;;;3.60;;
1336;SDS011;662;48.814;9.318;2022-08-24T07:51:15;5.80;;;3.97;;
1336;SDS011;662;48.814;9.318;2022-08-24T07:53:42;4.07;;;3.73;;
1336;SDS011;662;48.814;9.318;2022-08-24T07:56:08;4.60;;;3.20;;
1336;SDS011;662;48.814;9.318;2022-08-24T07:58:34;5.77;;;3.63;;
1336;SDS011;662;48.814;9.318;2022-08-24T08:01:01;4.27;;;3.90;;
1336;SDS011;662;48.814;9.318;2022-08-24T08:03:29;8.97;;;3.47;;
1336;SDS011;662;48.814;9.318;2022-08-24T08:06:01;4.20;;;2.87;;
1336;SDS011;662;48.814;9.318;2022-08-24T08:08:30;3.93;;;3.47;;
1336;SDS011;662;48.814;9.318;2022-08-24T08:10:57;4.67;;;3.20;;
1336;SDS011;662;48.814;9.318;2022-08-24T08:13:22;3.27;;;2.93;;
1336;SDS011;662;48.814;9.318;2022-08-24T08:15:48;3.67;;;2.77;;
1336;SDS011;662;48.814;9.318;2022-08-24T08:18:14;2.80;;;2.60;;
1336;SDS011;662;48.814;9.318;2022-08-24T08:20:42;3.03;;;2.80;;
1336;SDS011;662;48.814;9.318;2022-08-24T08:23:08;2.90;;;2.70;;
1336;SDS011;662;48.814;9.318;2022-08-24T08:25:53;2.80;;;2.50;;
1336;SDS011;662;48.814;9.318;2022-08-24T08:28:21;2.57;;;2.37;;
1336;SDS011;662;48.814;9.318;2022-08-24T08:30:48;2.80;;;2.60;;
1336;SDS011;662;48.814;9.318;2022-08-24T08:33:14;3.83;;;2.13;;
1336;SDS011;662;48.814;9.318;2022-08-24T08:35:40;7.30;;;2.93;;
1336;SDS011;662;48.814;9.318;2022-08-24T08:38:08;2.70;;;2.50;;
1336;SDS011;662;48.814;9.318;2022-08-24T08:43:34;2.73;;;2.53;;
1336;SDS011;662;48.814;9.318;2022-08-24T08:46:06;3.80;;;2.67;;
1336;SDS011;662;48.814;9.318;2022-08-24T08:54:28;2.90;;;2.70;;
1336;SDS011;662;48.814;9.318;2022-08-24T09:16:24;2.43;;;2.23;;
1336;SDS011;662;48.814;9.318;2022-08-24T09:22:08;2.27;;;2.07;;
1336;SDS011;662;48.814;9.318;2022-08-24T09:24:53;2.20;;;2.10;;
1336;SDS011;662;48.814;9.318;2022-08-24T09:27:45;2.10;;;2.00;;
1336;SDS011;662;48.814;9.318;2022-08-24T09:30:31;4.03;;;2.70;;
1336;SDS011;662;48.814;9.318;2022-08-24T09:33:22;2.50;;;2.20;;
1336;SDS011;662;48.814;9.318;2022-08-24T09:55:01;2.05;;;1.95;;
1336;SDS011;662;48.814;9.318;2022-08-24T09:57:47;2.40;;;2.20;;
1336;SDS011;662;48.814;9.318;2022-08-24T10:00:46;4.72;;;2.05;;
1336;SDS011;662;48.814;9.318;2022-08-24T10:03:58;2.28;;;2.17;;
1336;SDS011;662;48.814;9.318;2022-08-24T10:14:29;2.20;;;2.00;;
1336;SDS011;662;48.814;9.318;2022-08-24T10:25:28;2.65;;;2.28;;
1336;SDS011;662;48.814;9.318;2022-08-24T10:31:03;2.53;;;2.33;;
1336;SDS011;662;48.814;9.318;2022-08-24T10:45:05;3.70;;;1.80;;
1336;SDS011;662;48.814;9.318;2022-08-24T10:53:46;2.30;;;2.10;;
1336;SDS011;662;48.814;9.318;2022-08-24T10:56:15;2.60;;;2.40;;
1336;SDS011;662;48.814;9.318;2022-08-24T11:01:34;3.63;;;3.30;;
1336;SDS011;662;48.814;9.318;2022-08-24T11:04:03;2.33;;;2.13;;
1336;SDS011;662;48.814;9.318;2022-08-24T11:06:38;2.00;;;1.90;;
1336;SDS011;662;48.814;9.318;2022-08-24T11:11:38;3.13;;;2.93;;
1336;SDS011;662;48.814;9.318;2022-08-24T11:14:24;1.80;;;1.70;;
1336;SDS011;662;48.814;9.318;2022-08-24T11:17:12;2.50;;;1.83;;
1336;SDS011;662;48.814;9.318;2022-08-24T11:19:41;2.42;;;2.22;;
1336;SDS011;662;48.814;9.318;2022-08-24T11:22:56;4.18;;;2.10;;
1336;SDS011;662;48.814;9.318;2022-08-24T11:27:47;1.70;;;1.60;;
1336;SDS011;662;48.814;9.318;2022-08-24T11:32:51;2.42;;;1.98;;
1336;SDS011;662;48.814;9.318;2022-08-24T11:37:54;1.80;;;1.70;;
1336;SDS011;662;48.814;9.318;2022-08-24T11:40:27;2.00;;;1.87;;
1336;SDS011;662;48.814;9.318;2022-08-24T11:43:01;1.97;;;1.80;;
1336;SDS011;662;48.814;9.318;2022-08-24T11:45:37;1.80;;;1.70;;
1336;SDS011;662;48.814;9.318;2022-08-24T11:50:57;2.20;;;2.03;;
1336;SDS011;662;48.814;9.318;2022-08-24T11:57:20;4.00;;;2.03;;
1336;SDS011;662;48.814;9.318;2022-08-24T11:59:55;3.33;;;2.00;;
1336;SDS011;662;48.814;9.318;2022-08-24T12:13:56;2.50;;;1.70;;
1336;SDS011;662;48.814;9.318;2022-08-24T12:16:35;2.03;;;1.87;;
1336;SDS011;662;48.814;9.318;2022-08-24T12:19:17;1.73;;;1.50;;
1336;SDS011;662;48.814;9.318;2022-08-24T12:21:55;2.58;;;1.70;;
1336;SDS011;662;48.814;9.318;2022-08-24T12:24:34;2.83;;;1.77;;
1336;SDS011;662;48.814;9.318;2022-08-24T12:27:09;1.90;;;1.70;;
1336;SDS011;662;48.814;9.318;2022-08-24T12:38:12;2.10;;;1.90;;
1336;SDS011;662;48.814;9.318;2022-08-24T12:45:55;2.33;;;1.50;;
1336;SDS011;662;48.814;9.318;2022-08-24T12:56:44;2.07;;;1.97;;
1336;SDS011;662;48.814;9.318;2022-08-24T13:09:45;2.43;;;1.90;;
1336;SDS011;662;48.814;9.318;2022-08-24T13:50:32;2.60;;;2.40;;
1336;SDS011;662;48.814;9.318;2022-08-24T14:14:48;3.67;;;2.33;;
1336;SDS011;662;48.814;9.318;2022-08-24T14:48:03;2.20;;;2.10;;
1336;SDS011;662;48.814;9.318;2022-08-24T14:58:41;2.63;;;2.43;;
1336;SDS011;662;48.814;9.318;2022-08-24T15:01:43;2.50;;;2.30;;
1336;SDS011;662;48.814;9.318;2022-08-24T15:04:21;2.43;;;2.23;;
1336;SDS011;662;48.814;9.318;2022-08-24T15:06:54;2.77;;;2.57;;
1336;SDS011;662;48.814;9.318;2022-08-24T15:09:31;2.37;;;2.17;;
1336;SDS011;662;48.814;9.318;2022-08-24T15:12:19;2.53;;;2.33;;
1336;SDS011;662;48.814;9.318;2022-08-24T15:14:53;2.47;;;1.83;;
1336;SDS011;662;48.814;9.318;2022-08-24T15:17:44;2.30;;;2.20;;
1336;SDS011;662;48.814;9.318;2022-08-24T15:20:59;2.10;;;2.00;;
1336;SDS011;662;48.814;9.318;2022-08-24T15:26:28;2.80;;;2.40;;
1336;SDS011;662;48.814;9.318;2022-08-24T15:29:10;2.60;;;2.40;;
1336;SDS011;662;48.814;9.318;2022-08-24T15:31:41;3.57;;;2.53;;
1336;SDS011;662;48.814;9.318;2022-08-24T15:34:31;2.00;;;1.90;;
1336;SDS011;662;48.814;9.318;2022-08-24T15:37:02;2.30;;;2.20;;
1336;SDS011;662;48.814;9.318;2022-08-24T15:39:28;2.50;;;2.30;;
1336;SDS011;662;48.814;9.318;2022-08-24T15:41:55;2.20;;;2.10;;
1336;SDS011;662;48.814;9.318;2022-08-24T15:44:22;2.67;;;2.30;;
1336;SDS011;662;48.814;9.318;2022-08-24T15:47:11;2.50;;;2.30;;
1336;SDS011;662;48.814;9.318;2022-08-24T15:55:26;2.10;;;2.00;;
1336;SDS011;662;48.814;9.318;2022-08-24T15:57:53;2.30;;;2.10;;
1336;SDS011;662;48.814;9.318;2022-08-24T16:00:21;2.50;;;2.30;;
1336;SDS011;662;48.814;9.318;2022-08-24T16:03:20;2.00;;;1.90;;
1336;SDS011;662;48.814;9.318;2022-08-24T16:05:47;3.30;;;1.97;;
1336;SDS011;662;48.814;9.318;2022-08-24T16:08:15;2.90;;;2.40;;
1336;SDS011;662;48.814;9.318;2022-08-24T16:10:48;4.93;;;2.00;;
1336;SDS011;662;48.814;9.318;2022-08-24T16:18:12;2.00;;;1.90;;
1336;SDS011;662;48.814;9.318;2022-08-24T16:20:39;2.30;;;1.93;;
1336;SDS011;662;48.814;9.318;2022-08-24T16:23:06;2.73;;;2.10;;
1336;SDS011;662;48.814;9.318;2022-08-24T16:25:39;2.90;;;2.10;;
1336;SDS011;662;48.814;9.318;2022-08-24T16:28:10;1.90;;;1.80;;
1336;SDS011;662;48.814;9.318;2022-08-24T16:30:57;2.50;;;2.10;;
1336;SDS011;662;48.814;9.318;2022-08-24T16:35:54;2.20;;;2.00;;
1336;SDS011;662;48.814;9.318;2022-08-24T16:38:20;2.80;;;2.50;;
1336;SDS011;662;48.814;9.318;2022-08-24T16:40:46;2.57;;;2.13;;
1336;SDS011;662;48.814;9.318;2022-08-24T16:43:12;2.63;;;2.43;;
1336;SDS011;662;48.814;9.318;2022-08-24T16:45:38;2.00;;;1.73;;
1336;SDS011;662;48.814;9.318;2022-08-24T16:48:04;1.97;;;1.77;;
1336;SDS011;662;48.814;9.318;2022-08-24T16:50:30;3.23;;;2.30;;
1336;SDS011;662;48.814;9.318;2022-08-24T16:52:56;2.40;;;2.20;;
1336;SDS011;662;48.814;9.318;2022-08-24T16:55:21;2.27;;;2.13;;
1336;SDS011;662;48.814;9.318;2022-08-24T16:57:48;3.80;;;2.30;;
1336;SDS011;662;48.814;9.318;2022-08-24T17:00:16;2.80;;;2.10;;
1336;SDS011;662;48.814;9.318;2022-08-24T17:02:43;3.43;;;2.00;;
1336;SDS011;662;48.814;9.318;2022-08-24T17:05:10;2.20;;;1.80;;
1336;SDS011;662;48.814;9.318;2022-08-24T17:07:36;2.30;;;2.10;;
1336;SDS011;662;48.814;9.318;2022-08-24T17:10:02;2.00;;;1.90;;
1336;SDS011;662;48.814;9.318;2022-08-24T17:12:29;1.67;;;1.57;;
1336;SDS011;662;48.814;9.318;2022-08-24T17:14:56;2.27;;;1.60;;
1336;SDS011;662;48.814;9.318;2022-08-24T17:17:22;3.33;;;2.10;;
1336;SDS011;662;48.814;9.318;2022-08-24T17:19:49;2.00;;;1.80;;
1336;SDS011;662;48.814;9.318;2022-08-24T17:22:17;2.60;;;2.20;;
1336;SDS011;662;48.814;9.318;2022-08-24T17:24:43;5.30;;;2.17;;
1336;SDS011;662;48.814;9.318;2022-08-24T17:27:09;2.53;;;2.13;;
1336;SDS011;662;48.814;9.318;2022-08-24T17:29:37;2.30;;;2.00;;
1336;SDS011;662;48.814;9.318;2022-08-24T17:32:03;2.17;;;2.03;;
1336;SDS011;662;48.814;9.318;2022-08-24T17:34:29;2.10;;;2.00;;
1336;SDS011;662;48.814;9.318;2022-08-24T17:36:56;2.30;;;2.10;;
1336;SDS011;662;48.814;9.318;2022-08-24T17:39:22;2.43;;;2.27;;
1336;SDS011;662;48.814;9.318;2022-08-24T17:41:49;2.63;;;2.13;;
1336;SDS011;662;48.814;9.318;2022-08-24T17:44:23;2.80;;;2.37;;
1336;SDS011;662;48.814;9.318;2022-08-24T17:46:54;2.40;;;2.20;;
1336;SDS011;662;48.814;9.318;2022-08-24T17:49:23;2.47;;;1.90;;
1336;SDS011;662;48.814;9.318;2022-08-24T17:51:50;2.23;;;2.00;;
1336;SDS011;662;48.814;9.318;2022-08-24T17:54:16;2.20;;;2.10;;
1336;SDS011;662;48.814;9.318;2022-08-24T17:56:42;2.13;;;1.93;;
1336;SDS011;662;48.814;9.318;2022-08-24T17:59:10;2.50;;;1.90;;
1336;SDS011;662;48.814;9.318;2022-08-24T18:01:50;2.30;;;2.20;;
1336;SDS011;662;48.814;9.318;2022-08-24T18:04:21;2.30;;;2.10;;
1336;SDS011;662;48.814;9.318;2022-08-24T18:06:49;2.33;;;2.13;;
1336;SDS011;662;48.814;9.318;2022-08-24T18:11:53;1.97;;;1.87;;
1336;SDS011;662;48.814;9.318;2022-08-24T18:14:18;5.63;;;2.07;;
1336;SDS011;662;48.814;9.318;2022-08-24T18:16:44;2.10;;;2.00;;
1336;SDS011;662;48.814;9.318;2022-08-24T18:19:10;2.73;;;2.40;;
1336;SDS011;662;48.814;9.318;2022-08-24T18:21:37;4.93;;;2.30;;
1336;SDS011;662;48.814;9.318;2022-08-24T18:24:03;2.40;;;2.20;;
1336;SDS011;662;48.814;9.318;2022-08-24T18:26:29;2.33;;;2.13;;
1336;SDS011;662;48.814;9.318;2022-08-24T18:28:56;2.53;;;2.10;;
1336;SDS011;662;48.814;9.318;2022-08-24T18:31:26;4.20;;;2.57;;
1336;SDS011;662;48.814;9.318;2022-08-24T18:33:52;3.67;;;2.80;;
1336;SDS011;662;48.814;9.318;2022-08-24T18:36:18;4.10;;;2.30;;
1336;SDS011;662;48.814;9.318;2022-08-24T18:38:44;2.50;;;2.30;;
1336;SDS011;662;48.814;9.318;2022-08-24T18:41:09;2.87;;;2.60;;
1336;SDS011;662;48.814;9.318;2022-08-24T18:43:35;3.30;;;2.73;;
1336;SDS011;662;48.814;9.318;2022-08-24T18:46:02;2.93;;;2.60;;
1336;SDS011;662;48.814;9.318;2022-08-24T18:48:28;3.90;;;2.93;;
1336;SDS011;662;48.814;9.318;2022-08-24T18:50:54;3.17;;;2.90;;
1336;SDS011;662;48.814;9.318;2022-08-24T18:53:21;2.70;;;2.50;;
1336;SDS011;662;48.814;9.318;2022-08-24T18:55:49;4.13;;;2.40;;
1336;SDS011;662;48.814;9.318;2022-08-24T18:58:15;3.10;;;2.80;;
1336;SDS011;662;48.814;9.318;2022-08-24T19:00:41;2.73;;;2.53;;
1336;SDS011;662;48.814;9.318;2022-08-24T19:03:08;4.53;;;3.13;;
1336;SDS011;662;48.814;9.318;2022-08-24T19:05:36;2.47;;;2.27;;
1336;SDS011;662;48.814;9.318;2022-08-24T19:08:03;5.70;;;3.00;;
1336;SDS011;662;48.814;9.318;2022-08-24T19:10:30;2.53;;;2.33;;
1336;SDS011;662;48.814;9.318;2022-08-24T19:13:05;4.87;;;3.40;;
1336;SDS011;662;48.814;9.318;2022-08-24T19:15:39;5.07;;;2.90;;
1336;SDS011;662;48.814;9.318;2022-08-24T19:18:07;3.60;;;2.90;;
1336;SDS011;662;48.814;9.318;2022-08-24T19:20:35;3.37;;;2.60;;
1336;SDS011;662;48.814;9.318;2022-08-24T19:23:07;2.93;;;2.60;;
1336;SDS011;662;48.814;9.318;2022-08-24T19:25:36;3.17;;;2.60;;
1336;SDS011;662;48.814;9.318;2022-08-24T19:28:08;2.87;;;2.57;;
1336;SDS011;662;48.814;9.318;2022-08-24T19:30:34;3.07;;;2.10;;
1336;SDS011;662;48.814;9.318;2022-08-24T19:33:00;2.40;;;2.30;;
1336;SDS011;662;48.814;9.318;2022-08-24T19:35:26;4.17;;;2.30;;
1336;SDS011;662;48.814;9.318;2022-08-24T19:37:53;3.30;;;2.70;;
1336;SDS011;662;48.814;9.318;2022-08-24T19:40:19;3.27;;;2.67;;
1336;SDS011;662;48.814;9.318;2022-08-24T19:42:45;3.17;;;2.93;;
1336;SDS011;662;48.814;9.318;2022-08-24T19:45:13;3.20;;;2.70;;
1336;SDS011;662;48.814;9.318;2022-08-24T19:48:01;2.93;;;2.73;;
1336;SDS011;662;48.814;9.318;2022-08-24T19:50:28;3.13;;;2.93;;
1336;SDS011;662;48.814;9.318;2022-08-24T19:52:54;3.47;;;3.17;;
1336;SDS011;662;48.814;9.318;2022-08-24T19:55:22;3.50;;;3.20;;
1336;SDS011;662;48.814;9.318;2022-08-24T19:57:49;3.17;;;2.97;;
1336;SDS011;662;48.814;9.318;2022-08-24T20:00:32;3.40;;;3.10;;
1336;SDS011;662;48.814;9.318;2022-08-24T20:03:05;2.90;;;2.70;;
1336;SDS011;662;48.814;9.318;2022-08-24T20:05:32;2.73;;;2.50;;
1336;SDS011;662;48.814;9.318;2022-08-24T20:07:59;3.07;;;2.30;;
1336;SDS011;662;48.814;9.318;2022-08-24T20:10:29;4.17;;;3.00;;
1336;SDS011;662;48.814;9.318;2022-08-24T20:12:56;3.83;;;3.47;;
1336;SDS011;662;48.814;9.318;2022-08-24T20:15:22;4.10;;;3.80;;
1336;SDS011;662;48.814;9.318;2022-08-24T20:17:49;3.50;;;3.20;;
1336;SDS011;662;48.814;9.318;2022-08-24T20:20:17;3.40;;;3.10;;